Time;durP1;ratioP1;P1;durP2;ratioP2;P2;SDS_P1;SDS_P2;PMS_P1;PMS_P2;Temp;Humidity;BMP_temperature;BMP_pressure;BME280_temperature;BME280_humidity;BME280_pressure;Samples;Min_cycle;Max_cycle;Signal;HPM_P1;HPM_P2
2023/12/20 00:00:52;;;;;;;7.00;1.92;;;12.30;1.00;;;;;;4971548;28;20093;-36
2023/12/20 00:03:17;;;;;;;9.38;2.45;;;11.90;1.00;;;;;;4970731;28;20066;-39
2023/12/20 00:05:43;;;;;;;9.85;2.42;;;11.50;1.00;;;;;;4972265;28;20089;-34
2023/12/20 00:08:09;;;;;;;14.25;2.63;;;11.60;1.00;;;;;;4969032;28;20038;-35
2023/12/20 00:10:35;;;;;;;8.05;2.10;;;12.10;1.00;;;;;;4986125;28;20126;-37
2023/12/20 00:13:01;;;;;;;10.90;2.90;;;12.00;1.00;;;;;;4972252;28;20110;-35
2023/12/20 00:15:26;;;;;;;11.80;2.20;;;11.80;1.00;;;;;;4971335;28;20039;-36
2023/12/20 00:17:52;;;;;;;15.57;4.25;;;11.90;1.00;;;;;;4970098;28;20047;-35
2023/12/20 00:20:17;;;;;;;8.40;2.35;;;11.90;1.00;;;;;;4970995;28;20041;-34
2023/12/20 00:22:43;;;;;;;8.18;2.17;;;12.10;1.00;;;;;;4971459;28;20500;-34
2023/12/20 00:25:09;;;;;;;10.63;2.67;;;12.00;1.00;;;;;;4970319;28;20035;-34
2023/12/20 00:27:34;;;;;;;10.10;2.55;;;11.60;1.00;;;;;;4971813;28;20988;-35
2023/12/20 00:30:00;;;;;;;10.77;2.90;;;11.70;1.00;;;;;;4971649;28;20046;-35
2023/12/20 00:32:26;;;;;;;11.45;2.88;;;12.10;1.00;;;;;;4969824;28;20041;-35
2023/12/20 00:34:51;;;;;;;11.32;3.05;;;12.00;1.00;;;;;;4972053;28;20134;-37
2023/12/20 00:37:17;;;;;;;11.95;2.95;;;11.70;1.00;;;;;;4970230;28;20100;-34
2023/12/20 00:39:42;;;;;;;8.93;2.28;;;12.10;1.00;;;;;;4970071;28;20082;-34
2023/12/20 00:42:08;;;;;;;11.02;3.00;;;11.60;1.00;;;;;;4970207;28;20090;-35
2023/12/20 00:44:33;;;;;;;12.15;2.83;;;12.00;1.00;;;;;;4968282;28;20061;-35
2023/12/20 00:46:59;;;;;;;13.25;3.08;;;11.80;1.00;;;;;;4965899;28;20047;-34
2023/12/20 00:49:24;;;;;;;10.20;2.30;;;12.00;1.00;;;;;;4969850;28;20030;-34
2023/12/20 00:51:52;;;;;;;11.60;2.95;;;11.60;1.00;;;;;;4969928;28;20068;-37
2023/12/20 00:54:18;;;;;;;10.52;2.40;;;12.00;1.00;;;;;;4970440;28;20532;-38
2023/12/20 00:56:43;;;;;;;12.38;2.90;;;11.40;1.00;;;;;;4968343;28;20034;-34
2023/12/20 00:59:09;;;;;;;10.05;2.90;;;11.80;1.00;;;;;;4953052;28;20043;-38
2023/12/20 01:01:35;;;;;;;9.18;2.78;;;11.80;1.00;;;;;;4970124;28;20038;-35
2023/12/20 01:04:00;;;;;;;12.05;3.90;;;11.50;1.00;;;;;;4971414;28;20105;-35
2023/12/20 01:06:26;;;;;;;13.45;2.80;;;11.70;1.00;;;;;;4970565;28;20126;-35
2023/12/20 01:08:52;;;;;;;13.07;3.38;;;12.00;1.00;;;;;;4970802;28;20070;-34
2023/12/20 01:11:17;;;;;;;16.67;3.33;;;11.70;1.00;;;;;;4971329;28;20038;-37
2023/12/20 01:13:43;;;;;;;13.48;3.10;;;12.40;1.00;;;;;;4971121;28;20415;-35
2023/12/20 01:16:12;;;;;;;8.63;2.42;;;11.50;1.00;;;;;;4970989;28;20078;-35
2023/12/20 01:18:38;;;;;;;13.00;2.97;;;11.60;1.00;;;;;;4968099;28;20162;-35
2023/12/20 01:21:05;;;;;;;15.98;3.55;;;11.50;1.00;;;;;;4981077;28;20554;-37
2023/12/20 01:23:31;;;;;;;13.35;2.95;;;12.00;1.00;;;;;;4970562;28;20126;-37
2023/12/20 01:25:59;;;;;;;11.60;2.90;;;12.20;1.00;;;;;;4969442;28;20047;-34
2023/12/20 01:28:25;;;;;;;11.95;3.03;;;11.70;1.00;;;;;;4970553;28;20077;-37
2023/12/20 01:30:51;;;;;;;12.15;3.03;;;12.20;1.00;;;;;;4969392;28;20047;-37
2023/12/20 01:33:16;;;;;;;12.18;2.55;;;11.20;1.00;;;;;;4969485;28;20034;-38
2023/12/20 01:35:42;;;;;;;13.20;3.42;;;11.30;1.00;;;;;;4967360;28;20065;-35
2023/12/20 01:38:08;;;;;;;14.55;3.97;;;11.10;1.00;;;;;;4969885;28;20043;-36
2023/12/20 01:40:34;;;;;;;17.52;3.85;;;11.70;1.00;;;;;;4969746;28;20074;-36
2023/12/20 01:43:07;;;;;;;17.48;3.88;;;11.90;1.00;;;;;;4972932;28;20073;-35
2023/12/20 01:45:33;;;;;;;16.27;3.50;;;11.90;1.00;;;;;;4938737;28;20049;-37
2023/12/20 01:47:59;;;;;;;12.85;3.42;;;11.40;1.00;;;;;;4974487;28;20038;-34
2023/12/20 01:50:25;;;;;;;16.48;3.67;;;11.80;1.00;;;;;;4973619;28;20062;-35
2023/12/20 01:52:52;;;;;;;12.45;3.00;;;11.70;1.00;;;;;;4974842;28;20359;-34
2023/12/20 01:55:21;;;;;;;12.00;3.05;;;11.10;1.00;;;;;;4974243;28;20070;-34
2023/12/20 01:57:47;;;;;;;11.23;3.50;;;12.10;1.00;;;;;;4973607;28;20039;-35
2023/12/20 02:00:14;;;;;;;13.20;3.58;;;11.90;1.00;;;;;;4973759;28;20065;-35
2023/12/20 02:02:40;;;;;;;15.95;3.47;;;11.50;1.00;;;;;;4972741;28;20051;-34
2023/12/20 02:05:09;;;;;;;14.77;5.25;;;11.90;1.00;;;;;;4972566;28;20137;-37
2023/12/20 02:07:35;;;;;;;15.73;3.17;;;11.50;1.00;;;;;;4972853;28;20130;-37
2023/12/20 02:10:06;;;;;;;12.50;3.28;;;11.20;1.00;;;;;;4973979;28;20122;-38
2023/12/20 02:12:32;;;;;;;12.77;3.30;;;11.30;1.00;;;;;;4972130;28;20041;-35
2023/12/20 02:14:58;;;;;;;12.10;4.05;;;11.70;1.00;;;;;;4974355;28;20042;-35
2023/12/20 02:17:24;;;;;;;14.95;3.33;;;11.30;1.00;;;;;;4973610;28;20075;-34
2023/12/20 02:19:49;;;;;;;15.80;3.40;;;11.70;1.00;;;;;;4973696;28;20089;-34
2023/12/20 02:22:15;;;;;;;13.38;3.33;;;11.90;1.00;;;;;;4972051;28;20516;-38
2023/12/20 02:24:41;;;;;;;14.95;3.47;;;11.40;1.00;;;;;;4971424;28;20574;-35
2023/12/20 02:27:07;;;;;;;14.73;4.53;;;11.60;1.00;;;;;;4973856;28;20053;-37
2023/12/20 02:29:36;;;;;;;15.75;3.28;;;11.60;1.00;;;;;;4973262;28;20039;-36
2023/12/20 02:32:02;;;;;;;15.80;3.50;;;11.20;1.00;;;;;;4970999;28;20106;-35
2023/12/20 02:34:29;;;;;;;11.57;3.58;;;11.10;1.00;;;;;;4971764;28;20057;-35
2023/12/20 02:36:55;;;;;;;13.70;3.90;;;11.80;1.00;;;;;;4972537;28;20091;-36
2023/12/20 02:39:22;;;;;;;15.48;3.95;;;11.60;1.00;;;;;;4985822;28;20444;-37
2023/12/20 02:41:48;;;;;;;12.88;3.38;;;11.80;1.00;;;;;;4955763;28;20129;-36
2023/12/20 02:44:14;;;;;;;10.38;3.67;;;11.90;1.00;;;;;;4973498;28;20510;-35
2023/12/20 02:46:39;;;;;;;21.25;4.97;;;11.30;1.00;;;;;;4972976;28;20050;-36
2023/12/20 02:49:06;;;;;;;14.88;5.82;;;11.20;1.00;;;;;;4973388;28;20049;-34
2023/12/20 02:51:32;;;;;;;16.20;4.10;;;11.30;1.00;;;;;;4970981;28;20081;-36
2023/12/20 02:53:57;;;;;;;14.75;4.35;;;11.90;1.00;;;;;;4971413;28;20031;-37
2023/12/20 02:56:23;;;;;;;15.93;3.63;;;11.40;1.00;;;;;;4971678;28;20053;-35
2023/12/20 02:58:49;;;;;;;16.20;3.53;;;10.90;1.00;;;;;;4973021;28;20046;-35
2023/12/20 03:01:14;;;;;;;20.13;5.28;;;11.60;1.00;;;;;;4972859;28;20045;-36
2023/12/20 03:03:40;;;;;;;15.02;4.68;;;11.30;1.00;;;;;;4972460;28;20047;-34
2023/12/20 03:06:05;;;;;;;14.20;4.03;;;11.70;1.00;;;;;;4972849;28;20098;-38
2023/12/20 03:08:31;;;;;;;17.98;3.60;;;11.40;1.00;;;;;;4970297;28;20126;-34
2023/12/20 03:10:58;;;;;;;18.55;3.80;;;11.40;1.00;;;;;;4969083;28;20472;-34
2023/12/20 03:13:24;;;;;;;11.95;4.13;;;11.00;1.00;;;;;;4968338;28;20122;-36
2023/12/20 03:15:49;;;;;;;15.30;3.78;;;11.10;1.00;;;;;;4967632;28;20123;-36
2023/12/20 03:18:15;;;;;;;15.80;4.30;;;11.20;1.00;;;;;;4968716;28;20039;-38
2023/12/20 03:20:41;;;;;;;11.88;3.03;;;10.90;1.00;;;;;;4969932;28;20061;-36
2023/12/20 03:23:07;;;;;;;14.82;3.45;;;11.30;1.00;;;;;;4967042;28;20111;-38
2023/12/20 03:25:32;;;;;;;15.02;3.40;;;11.00;1.00;;;;;;4968910;28;21027;-34
2023/12/20 03:27:58;;;;;;;15.35;3.90;;;11.50;1.00;;;;;;4972599;28;20031;-35
2023/12/20 03:30:23;;;;;;;19.58;3.85;;;11.00;1.00;;;;;;4971472;28;20042;-34
2023/12/20 03:32:49;;;;;;;16.58;4.07;;;11.40;1.00;;;;;;4970906;28;20039;-35
2023/12/20 03:35:14;;;;;;;13.63;3.83;;;11.10;1.00;;;;;;4970545;28;20077;-37
2023/12/20 03:37:40;;;;;;;13.70;3.20;;;11.80;1.00;;;;;;4972998;28;20101;-35
2023/12/20 03:40:06;;;;;;;16.42;4.68;;;11.80;1.00;;;;;;4971406;28;20418;-37
2023/12/20 03:42:32;;;;;;;13.65;3.72;;;11.60;1.00;;;;;;4972846;28;20046;-37
2023/12/20 03:44:57;;;;;;;11.63;3.53;;;11.40;1.00;;;;;;4973621;28;20034;-34
2023/12/20 03:47:23;;;;;;;11.15;3.30;;;11.30;1.00;;;;;;4970663;28;20731;-34
2023/12/20 03:49:48;;;;;;;18.27;3.42;;;10.90;1.00;;;;;;4972462;28;20144;-36
2023/12/20 03:52:14;;;;;;;11.57;3.38;;;11.00;1.00;;;;;;4972489;28;20061;-39
2023/12/20 03:54:42;;;;;;;16.60;3.75;;;10.90;1.00;;;;;;4974789;28;20035;-34
2023/12/20 03:57:08;;;;;;;14.27;3.85;;;12.10;1.00;;;;;;4969916;28;20510;-35
2023/12/20 03:59:37;;;;;;;17.70;5.40;;;10.90;1.00;;;;;;4971477;28;20073;-35
2023/12/20 04:02:03;;;;;;;16.38;3.08;;;12.00;1.00;;;;;;4972026;28;20182;-35
2023/12/20 04:04:29;;;;;;;13.73;4.05;;;11.00;1.00;;;;;;4971682;28;20065;-35
2023/12/20 04:06:55;;;;;;;14.70;3.47;;;11.10;1.00;;;;;;4970350;28;21773;-36
2023/12/20 04:09:20;;;;;;;14.77;3.80;;;11.30;1.00;;;;;;4970622;28;20384;-35
2023/12/20 04:11:46;;;;;;;12.02;4.93;;;11.10;1.00;;;;;;4972265;28;20031;-35
2023/12/20 04:14:12;;;;;;;17.08;3.45;;;11.50;1.00;;;;;;4971067;28;20037;-36
2023/12/20 04:16:38;;;;;;;16.48;3.67;;;12.10;1.00;;;;;;4971706;28;20061;-36
2023/12/20 04:19:04;;;;;;;14.43;4.40;;;11.60;1.00;;;;;;4971098;28;20034;-34
2023/12/20 04:21:30;;;;;;;13.88;3.28;;;11.30;1.00;;;;;;4971556;28;20069;-35
2023/12/20 04:23:56;;;;;;;14.55;3.58;;;11.50;1.00;;;;;;4969674;28;20047;-38
2023/12/20 04:26:21;;;;;;;17.30;3.63;;;11.00;1.00;;;;;;4970382;28;20058;-34
2023/12/20 04:28:47;;;;;;;12.77;3.50;;;10.00;1.00;;;;;;4969917;28;20129;-35
2023/12/20 04:31:13;;;;;;;15.27;4.15;;;11.90;1.00;;;;;;4971600;28;20034;-35
2023/12/20 04:33:39;;;;;;;13.38;4.07;;;12.20;1.00;;;;;;4969760;28;20123;-35
2023/12/20 04:36:04;;;;;;;13.10;3.92;;;11.40;1.00;;;;;;4968834;28;20121;-38
2023/12/20 04:38:30;;;;;;;14.27;4.50;;;11.00;1.00;;;;;;4970707;28;20043;-37
2023/12/20 04:40:56;;;;;;;11.98;3.95;;;11.50;1.00;;;;;;4970977;28;20038;-35
2023/12/20 04:43:21;;;;;;;11.75;3.42;;;11.80;1.00;;;;;;4969905;28;20494;-38
2023/12/20 04:45:47;;;;;;;19.00;3.97;;;11.80;1.00;;;;;;4968606;28;20090;-37
2023/12/20 04:48:13;;;;;;;11.65;4.22;;;11.60;1.00;;;;;;4970714;28;20038;-34
2023/12/20 04:50:40;;;;;;;12.73;3.65;;;11.70;1.00;;;;;;4970584;28;20187;-35
2023/12/20 04:53:06;;;;;;;16.70;3.75;;;11.40;1.00;;;;;;4971093;28;20030;-35
2023/12/20 04:55:33;;;;;;;13.65;3.83;;;11.00;1.00;;;;;;4969850;28;20094;-35
2023/12/20 04:57:59;;;;;;;13.90;3.67;;;10.90;1.00;;;;;;4971278;28;20046;-35
2023/12/20 05:00:24;;;;;;;19.25;4.35;;;11.90;1.00;;;;;;4970640;28;20356;-35
2023/12/20 05:02:50;;;;;;;15.73;3.60;;;11.60;1.00;;;;;;4969453;28;20038;-35
2023/12/20 05:05:17;;;;;;;14.60;3.80;;;11.10;1.00;;;;;;4970572;28;20042;-34
2023/12/20 05:07:43;;;;;;;16.10;3.92;;;11.70;1.00;;;;;;4981700;28;20507;-34
2023/12/20 05:10:09;;;;;;;15.13;3.65;;;11.20;1.00;;;;;;4971274;28;20093;-34
2023/12/20 05:12:35;;;;;;;14.02;3.90;;;11.70;1.00;;;;;;4969941;28;20050;-35
2023/12/20 05:15:01;;;;;;;14.07;3.75;;;11.40;1.00;;;;;;4966628;28;20058;-36
2023/12/20 05:17:26;;;;;;;13.43;3.92;;;11.10;1.00;;;;;;4972132;28;20085;-34
2023/12/20 05:19:52;;;;;;;15.07;4.47;;;11.40;1.00;;;;;;4974708;28;20026;-36
2023/12/20 05:22:19;;;;;;;17.00;5.32;;;11.30;1.00;;;;;;4974868;28;20039;-35
2023/12/20 05:24:45;;;;;;;12.07;3.35;;;10.90;1.00;;;;;;4968554;28;20035;-38
2023/12/20 05:27:11;;;;;;;16.48;4.15;;;11.40;1.00;;;;;;4969030;28;20142;-36
2023/12/20 05:29:38;;;;;;;16.25;4.47;;;11.10;1.00;;;;;;4971729;28;20410;-34
2023/12/20 05:32:04;;;;;;;18.00;3.90;;;11.30;1.00;;;;;;4966943;28;20202;-37
2023/12/20 05:34:30;;;;;;;15.50;3.65;;;11.50;1.00;;;;;;4965298;28;20118;-35
2023/12/20 05:36:57;;;;;;;14.93;4.00;;;11.30;1.00;;;;;;4971779;28;20380;-36
2023/12/20 05:39:23;;;;;;;30.25;5.40;;;11.20;1.00;;;;;;4973669;28;20503;-36
2023/12/20 05:41:48;;;;;;;23.50;5.38;;;11.60;1.00;;;;;;4971907;28;20035;-37
2023/12/20 05:44:14;;;;;;;59.03;13.95;;;11.30;1.00;;;;;;4975440;28;20512;-38
2023/12/20 05:46:40;;;;;;;54.95;13.02;;;11.20;1.00;;;;;;4972151;28;20030;-35
2023/12/20 05:49:06;;;;;;;41.22;10.30;;;11.60;1.00;;;;;;4969600;28;20090;-34
2023/12/20 05:51:34;;;;;;;36.03;10.63;;;11.90;1.00;;;;;;4971923;28;20094;-38
2023/12/20 05:54:00;;;;;;;32.15;8.02;;;12.10;1.00;;;;;;4973432;28;20125;-34
2023/12/20 05:56:25;;;;;;;31.30;8.95;;;12.30;1.00;;;;;;4967939;28;20094;-39
2023/12/20 05:58:51;;;;;;;28.55;7.25;;;12.10;1.00;;;;;;4971918;28;20046;-35
2023/12/20 06:01:17;;;;;;;24.38;6.53;;;11.40;1.00;;;;;;4973461;28;20406;-39
2023/12/20 06:03:43;;;;;;;31.55;7.40;;;11.80;1.00;;;;;;4969733;28;20042;-39
2023/12/20 06:06:09;;;;;;;21.60;6.53;;;11.30;1.00;;;;;;4971713;28;20127;-36
2023/12/20 06:08:35;;;;;;;24.80;5.95;;;11.80;1.00;;;;;;4970220;28;20533;-35
2023/12/20 06:11:01;;;;;;;22.15;5.28;;;11.30;1.00;;;;;;4955864;28;20498;-36
2023/12/20 06:13:27;;;;;;;23.75;5.65;;;12.10;1.00;;;;;;4972891;28;20034;-35
2023/12/20 06:15:54;;;;;;;17.83;6.18;;;11.70;1.00;;;;;;4972960;28;20049;-35
2023/12/20 06:18:19;;;;;;;18.70;5.85;;;11.80;1.00;;;;;;4977434;28;20391;-35
2023/12/20 06:20:45;;;;;;;16.80;5.40;;;11.80;1.00;;;;;;4974384;28;20347;-34
2023/12/20 06:23:11;;;;;;;16.40;4.95;;;12.00;1.00;;;;;;4972186;28;20122;-35
2023/12/20 06:25:36;;;;;;;21.05;5.40;;;11.70;1.00;;;;;;4973958;28;20570;-36
2023/12/20 06:28:02;;;;;;;18.40;4.45;;;11.80;1.00;;;;;;4973374;28;20126;-37
2023/12/20 06:30:28;;;;;;;14.77;4.25;;;11.90;1.00;;;;;;4974658;28;20034;-36
2023/12/20 06:32:54;;;;;;;16.65;4.57;;;11.30;1.00;;;;;;4970041;28;20026;-35
2023/12/20 06:35:20;;;;;;;19.73;5.25;;;11.80;1.00;;;;;;4973139;28;20085;-35
2023/12/20 06:37:46;;;;;;;13.02;3.72;;;12.00;1.00;;;;;;4973956;28;20035;-36
2023/12/20 06:40:12;;;;;;;18.70;4.68;;;11.70;1.00;;;;;;4972142;28;20462;-35
2023/12/20 06:42:37;;;;;;;15.73;4.55;;;12.10;1.00;;;;;;4987069;28;20219;-38
2023/12/20 06:45:04;;;;;;;18.35;4.38;;;11.70;1.00;;;;;;4973285;28;20062;-35
2023/12/20 06:47:30;;;;;;;13.95;3.85;;;11.60;1.00;;;;;;4970692;28;20035;-35
2023/12/20 06:49:55;;;;;;;14.90;4.88;;;11.90;1.00;;;;;;4970446;28;20038;-35
2023/12/20 06:52:22;;;;;;;17.40;4.80;;;;;;;;;;4971997;28;20057;-35
2023/12/20 06:54:48;;;;;;;14.25;4.20;;;12.20;1.00;;;;;;4971656;28;20387;-35
2023/12/20 06:57:14;;;;;;;13.30;4.28;;;11.40;1.00;;;;;;4972792;28;20050;-38
2023/12/20 06:59:40;;;;;;;16.50;4.10;;;11.60;1.00;;;;;;4943340;28;20042;-39
2023/12/20 07:02:06;;;;;;;17.88;4.82;;;11.30;1.00;;;;;;4963811;28;20062;-35
2023/12/20 07:04:32;;;;;;;16.20;4.95;;;11.30;1.00;;;;;;4971996;28;20999;-40
2023/12/20 07:07:00;;;;;;;14.15;4.22;;;12.00;1.00;;;;;;4973344;28;20027;-34
2023/12/20 07:09:26;;;;;;;12.73;3.78;;;11.80;1.00;;;;;;4976901;28;20049;-34
2023/12/20 07:11:52;;;;;;;13.90;4.32;;;12.00;1.00;;;;;;4966132;28;20035;-41
2023/12/20 07:14:18;;;;;;;13.77;4.28;;;11.70;1.00;;;;;;4972584;28;20166;-40
2023/12/20 07:16:44;;;;;;;18.88;4.30;;;11.60;1.00;;;;;;4981406;28;20034;-35
2023/12/20 07:19:09;;;;;;;18.58;4.32;;;12.10;1.00;;;;;;4975992;28;20094;-37
2023/12/20 07:21:35;;;;;;;14.98;4.00;;;11.70;1.00;;;;;;4980119;28;20053;-37
2023/12/20 07:24:01;;;;;;;13.75;3.85;;;12.00;1.00;;;;;;4977267;28;20498;-37
2023/12/20 07:26:26;;;;;;;11.90;4.53;;;11.10;1.00;;;;;;4977192;28;20087;-35
2023/12/20 07:28:52;;;;;;;16.08;4.20;;;12.20;1.00;;;;;;4981109;28;20473;-37
2023/12/20 07:31:17;;;;;;;17.73;4.40;;;11.90;1.00;;;;;;4976240;28;20031;-38
2023/12/20 07:33:43;;;;;;;12.07;3.28;;;11.10;1.00;;;;;;4979685;28;20069;-36
2023/12/20 07:36:09;;;;;;;13.90;3.78;;;11.60;1.00;;;;;;4976730;28;20069;-35
2023/12/20 07:38:35;;;;;;;14.40;3.20;;;11.60;1.00;;;;;;4978589;28;20115;-35
2023/12/20 07:41:00;;;;;;;18.35;4.68;;;11.60;1.00;;;;;;4977942;28;20040;-36
2023/12/20 07:43:26;;;;;;;12.90;4.63;;;11.80;1.00;;;;;;4979503;28;20039;-36
2023/12/20 07:45:51;;;;;;;16.88;4.20;;;11.10;1.00;;;;;;4979077;28;20518;-35
2023/12/20 07:48:17;;;;;;;13.27;3.63;;;11.10;1.00;;;;;;4977056;28;20035;-37
2023/12/20 07:50:43;;;;;;;17.38;4.18;;;11.40;1.00;;;;;;4976496;28;20121;-37
2023/12/20 07:53:08;;;;;;;16.17;3.95;;;11.80;1.00;;;;;;4974617;28;20042;-33
2023/12/20 07:55:35;;;;;;;16.05;4.55;;;;;;;;;;4979501;28;20378;-34
2023/12/20 07:58:00;;;;;;;18.85;3.67;;;11.70;1.00;;;;;;4976874;28;20051;-35
2023/12/20 08:00:27;;;;;;;14.25;4.10;;;11.70;1.00;;;;;;4978191;28;20038;-34
2023/12/20 08:02:53;;;;;;;15.75;3.38;;;;;;;;;;4973856;28;20043;-38
2023/12/20 08:05:18;;;;;;;16.92;3.67;;;11.70;1.00;;;;;;4974874;28;20050;-38
2023/12/20 08:07:44;;;;;;;11.00;3.25;;;12.00;1.00;;;;;;4976543;28;20041;-37
2023/12/20 08:10:11;;;;;;;12.50;3.85;;;12.00;1.00;;;;;;4970219;28;20409;-37
2023/12/20 08:12:36;;;;;;;15.00;3.25;;;11.40;1.00;;;;;;4979691;28;20498;-37
2023/12/20 08:15:03;;;;;;;11.07;3.55;;;11.60;1.00;;;;;;4972804;28;20157;-38
2023/12/20 08:17:29;;;;;;;12.00;3.53;;;11.20;1.00;;;;;;4978864;28;20422;-36
2023/12/20 08:19:55;;;;;;;14.70;3.47;;;11.90;1.00;;;;;;4977941;28;20034;-35
2023/12/20 08:22:20;;;;;;;14.43;3.05;;;11.70;1.00;;;;;;4977937;28;20558;-39
2023/12/20 08:24:46;;;;;;;12.32;3.92;;;11.70;1.00;;;;;;4975121;28;20498;-38
2023/12/20 08:27:11;;;;;;;10.55;2.47;;;11.20;1.00;;;;;;4972991;28;20137;-39
2023/12/20 08:29:37;;;;;;;12.35;2.78;;;11.40;1.00;;;;;;4981537;28;20050;-36
2023/12/20 08:32:03;;;;;;;14.73;3.58;;;11.40;1.00;;;;;;4978241;28;20042;-37
2023/12/20 08:34:29;;;;;;;12.80;3.30;;;11.60;1.00;;;;;;4969771;28;20046;-38
2023/12/20 08:36:54;;;;;;;17.85;3.17;;;11.00;1.00;;;;;;4970853;28;20039;-35
2023/12/20 08:39:20;;;;;;;15.88;4.82;;;11.20;1.00;;;;;;4975351;28;20042;-38
2023/12/20 08:41:46;;;;;;;14.48;3.45;;;11.20;1.00;;;;;;4979000;28;20041;-36
2023/12/20 08:44:11;;;;;;;12.77;3.70;;;11.30;1.00;;;;;;4977563;28;20060;-37
2023/12/20 08:46:37;;;;;;;12.13;3.63;;;11.30;1.00;;;;;;4977323;28;20118;-38
2023/12/20 08:49:03;;;;;;;16.77;3.92;;;11.30;1.00;;;;;;4975598;28;20034;-35
2023/12/20 08:51:29;;;;;;;16.60;3.28;;;10.90;1.00;;;;;;4971126;28;20082;-39
2023/12/20 08:53:54;;;;;;;14.10;4.93;;;11.30;1.00;;;;;;4973842;28;20091;-36
2023/12/20 08:56:20;;;;;;;14.13;3.72;;;11.50;1.00;;;;;;4971313;28;20042;-40
2023/12/20 08:58:47;;;;;;;14.25;3.53;;;11.50;1.00;;;;;;4976115;28;20034;-38
2023/12/20 09:01:13;;;;;;;10.82;2.88;;;11.70;1.00;;;;;;4972968;28;20042;-38
2023/12/20 09:03:39;;;;;;;13.05;2.72;;;11.50;1.00;;;;;;4976033;28;20049;-36
2023/12/20 09:06:05;;;;;;;10.93;2.58;;;11.40;1.00;;;;;;4971801;28;20446;-36
2023/12/20 09:08:31;;;;;;;9.95;2.50;;;11.70;1.00;;;;;;4970170;28;20039;-38
2023/12/20 09:10:57;;;;;;;11.80;2.70;;;11.50;1.00;;;;;;4971103;28;20165;-37
2023/12/20 09:13:27;;;;;;;11.50;3.47;;;11.80;1.00;;;;;;4979992;28;20038;-36
2023/12/20 09:15:57;;;;;;;10.07;2.22;;;11.40;1.00;;;;;;4980018;28;20050;-36
2023/12/20 09:18:22;;;;;;;8.77;2.42;;;10.80;99.90;;;;;;4977556;28;20530;-36
2023/12/20 09:20:48;;;;;;;7.95;1.75;;;11.60;1.00;;;;;;4976212;28;20118;-40
2023/12/20 09:23:14;;;;;;;10.80;2.97;;;11.20;1.00;;;;;;4970558;28;20042;-36
2023/12/20 09:25:39;;;;;;;9.88;2.55;;;11.20;1.00;;;;;;4972330;28;20130;-37
2023/12/20 09:28:05;;;;;;;7.15;1.77;;;10.70;1.00;;;;;;4975195;28;20054;-35
2023/12/20 09:30:35;;;;;;;8.55;1.88;;;;;;;;;;4973537;28;20340;-36
2023/12/20 09:33:05;;;;;;;8.63;2.00;;;11.30;99.90;;;;;;4979098;28;20509;-36
2023/12/20 09:35:30;;;;;;;9.25;1.60;;;11.50;1.00;;;;;;4971300;28;20039;-37
2023/12/20 09:37:56;;;;;;;7.57;1.73;;;11.50;1.00;;;;;;4975784;28;20049;-39
2023/12/20 09:40:27;;;;;;;7.18;2.30;;;10.80;1.00;;;;;;4975018;28;20047;-36
2023/12/20 09:42:58;;;;;;;9.70;2.22;;;11.00;1.00;;;;;;4977150;28;20042;-36
2023/12/20 09:45:24;;;;;;;11.18;2.65;;;10.80;1.00;;;;;;4970597;28;20049;-39
2023/12/20 09:47:52;;;;;;;9.20;2.17;;;11.00;1.00;;;;;;4973316;28;20043;-37
2023/12/20 09:50:20;;;;;;;7.93;1.70;;;11.30;1.00;;;;;;4974736;28;20402;-39
2023/12/20 09:52:50;;;;;;;8.52;1.88;;;11.20;1.00;;;;;;4971713;28;20034;-37
2023/12/20 09:55:18;;;;;;;6.15;1.63;;;10.80;1.00;;;;;;4957297;28;20096;-36
2023/12/20 09:57:44;;;;;;;6.15;1.50;;;11.10;1.00;;;;;;4975456;28;20097;-41
2023/12/20 10:00:13;;;;;;;7.18;1.50;;;11.00;1.00;;;;;;4975527;28;20046;-37
2023/12/20 10:02:44;;;;;;;8.75;2.33;;;11.60;1.00;;;;;;4978068;28;20046;-39
2023/12/20 10:05:18;;;;;;;6.60;1.58;;;11.20;1.00;;;;;;4978880;28;20057;-42
2023/12/20 10:07:45;;;;;;;8.88;2.22;;;11.20;1.00;;;;;;4982387;28;20053;-40
2023/12/20 10:10:12;;;;;;;7.15;2.08;;;;;;;;;;4960148;28;20046;-37
2023/12/20 10:12:38;;;;;;;10.88;1.92;;;11.40;99.90;;;;;;4976164;28;20057;-40
2023/12/20 10:15:04;;;;;;;8.48;2.03;;;11.60;1.00;;;;;;4978692;28;20635;-36
2023/12/20 10:17:31;;;;;;;10.13;2.00;;;11.10;1.00;;;;;;4980469;28;20042;-37
2023/12/20 10:19:57;;;;;;;7.25;2.03;;;11.50;99.90;;;;;;4974713;28;20494;-36
2023/12/20 10:22:23;;;;;;;10.00;2.10;;;11.50;1.00;;;;;;4975696;28;20093;-37
2023/12/20 10:24:49;;;;;;;7.35;2.13;;;11.40;1.00;;;;;;4977826;28;20030;-37
2023/12/20 10:27:17;;;;;;;6.50;2.10;;;;;;;;;;4972938;28;20049;-40
2023/12/20 10:29:42;;;;;;;11.32;2.50;;;10.70;99.90;;;;;;4975273;28;20510;-40
2023/12/20 10:32:27;;;;;;;7.55;1.83;;;11.50;99.90;;;;;;4975591;28;20046;-36
2023/12/20 10:34:56;;;;;;;7.13;2.00;;;11.20;99.90;;;;;;4971411;28;20049;-34
2023/12/20 10:37:22;;;;;;;8.10;1.77;;;10.90;1.00;;;;;;4974223;28;20047;-36
2023/12/20 10:39:57;;;;;;;13.13;3.10;;;11.00;99.90;;;;;;4974224;28;20046;-39
2023/12/20 10:42:27;;;;;;;9.80;1.80;;;11.10;1.00;;;;;;4970798;28;20125;-33
2023/12/20 10:44:53;;;;;;;9.82;2.10;;;11.30;99.90;;;;;;4977548;28;20038;-34
2023/12/20 10:47:20;;;;;;;9.52;3.42;;;11.00;99.90;;;;;;4973734;28;20046;-34
2023/12/20 10:49:46;;;;;;;9.68;2.38;;;11.00;99.90;;;;;;4979538;28;20394;-38
2023/12/20 10:52:13;;;;;;;11.63;2.30;;;10.90;99.90;;;;;;4960925;28;20056;-35
2023/12/20 10:54:41;;;;;;;11.20;2.63;;;11.70;99.90;;;;;;4978236;28;20069;-33
2023/12/20 10:57:07;;;;;;;9.00;2.03;;;11.00;99.90;;;;;;4980079;28;20081;-33
2023/12/20 10:59:36;;;;;;;7.03;2.10;;;11.20;99.90;;;;;;4973485;28;20050;-33
2023/12/20 11:02:05;;;;;;;9.85;2.35;;;10.90;99.90;;;;;;4973299;28;20056;-33
2023/12/20 11:05:08;;;;;;;7.97;2.15;;;10.70;99.90;;;;;;4975317;28;20046;-36
2023/12/20 11:07:41;;;;;;;7.35;1.85;;;11.30;99.90;;;;;;4976984;28;20058;-33
2023/12/20 11:10:20;;;;;;;7.93;2.17;;;11.10;99.90;;;;;;4976303;28;20055;-33
2023/12/20 11:13:10;;;;;;;11.45;2.00;;;11.00;99.90;;;;;;4977805;28;20034;-39
2023/12/20 11:15:37;;;;;;;10.02;2.47;;;11.60;99.90;;;;;;4970536;28;20041;-42
2023/12/20 11:18:05;;;;;;;14.02;2.70;;;11.00;99.90;;;;;;4972116;28;20097;-34
2023/12/20 11:20:39;;;;;;;7.88;2.15;;;11.00;99.90;;;;;;4974198;28;20284;-34
2023/12/20 11:23:06;;;;;;;9.57;2.47;;;11.00;99.90;;;;;;4973175;28;20046;-36
2023/12/20 11:25:58;;;;;;;7.90;2.05;;;11.70;99.90;;;;;;4963193;28;20069;-39
2023/12/20 11:28:25;;;;;;;9.38;2.13;;;10.90;99.90;;;;;;4970025;28;20127;-36
2023/12/20 11:30:55;;;;;;;9.75;2.13;;;11.80;99.90;;;;;;4972827;28;20093;-39
2023/12/20 11:33:39;;;;;;;6.30;2.10;;;11.20;99.90;;;;;;4968088;28;20045;-39
2023/12/20 11:36:14;;;;;;;9.93;2.20;;;10.90;99.90;;;;;;4972450;28;20185;-35
2023/12/20 11:38:55;;;;;;;12.48;2.25;;;11.00;99.90;;;;;;4969915;28;20065;-36
2023/12/20 11:41:24;;;;;;;9.45;2.28;;;11.20;99.90;;;;;;4969916;28;20050;-38
2023/12/20 11:43:53;;;;;;;8.98;2.08;;;12.00;99.90;;;;;;4970032;28;20495;-36
2023/12/20 11:46:19;;;;;;;9.45;2.20;;;11.80;99.90;;;;;;4972161;28;20116;-41
2023/12/20 11:48:45;;;;;;;9.93;2.00;;;11.10;99.90;;;;;;4969815;28;20089;-39
2023/12/20 11:51:14;;;;;;;9.82;2.20;;;11.50;99.90;;;;;;4973600;28;20042;-42
2023/12/20 11:53:40;;;;;;;9.75;2.30;;;11.80;99.90;;;;;;4971727;28;20046;-40
2023/12/20 11:56:07;;;;;;;10.02;2.55;;;10.60;99.90;;;;;;4971071;28;20388;-34
2023/12/20 11:58:36;;;;;;;7.47;2.03;;;10.50;99.90;;;;;;4971694;28;20041;-34
2023/12/20 12:01:07;;;;;;;7.40;2.00;;;11.20;99.90;;;;;;4970542;28;20050;-38
2023/12/20 12:03:35;;;;;;;10.40;2.90;;;11.10;99.90;;;;;;4968441;28;20528;-34
2023/12/20 12:06:04;;;;;;;8.02;2.00;;;11.70;99.90;;;;;;4970899;28;20589;-34
2023/12/20 12:08:30;;;;;;;7.32;2.00;;;11.00;99.90;;;;;;4971882;28;20047;-36
2023/12/20 12:10:56;;;;;;;12.85;2.10;;;11.50;99.90;;;;;;4969890;28;20028;-35
2023/12/20 12:13:21;;;;;;;10.38;2.33;;;11.10;99.90;;;;;;4973760;28;20065;-34
2023/12/20 12:15:48;;;;;;;10.57;2.10;;;10.80;99.90;;;;;;4969464;28;20030;-37
2023/12/20 12:18:17;;;;;;;11.55;2.75;;;11.10;99.90;;;;;;4974055;28;20053;-37
2023/12/20 12:20:43;;;;;;;8.93;2.30;;;11.60;99.90;;;;;;4972958;28;20121;-37
2023/12/20 12:23:08;;;;;;;9.07;2.35;;;11.00;99.90;;;;;;4971290;28;20618;-34
2023/12/20 12:25:37;;;;;;;13.13;3.08;;;10.90;99.90;;;;;;4971184;28;20050;-34
2023/12/20 12:28:03;;;;;;;8.85;2.72;;;11.60;99.90;;;;;;4972893;28;20049;-33
2023/12/20 12:30:29;;;;;;;12.77;2.92;;;11.30;99.90;;;;;;4970784;28;20034;-35
2023/12/20 12:32:56;;;;;;;11.15;2.97;;;10.70;99.90;;;;;;4970423;28;20047;-34
2023/12/20 12:35:22;;;;;;;10.20;2.22;;;11.30;99.90;;;;;;4970787;28;20057;-33
2023/12/20 12:37:48;;;;;;;12.75;2.42;;;11.50;99.90;;;;;;4971523;28;20042;-34
2023/12/20 12:40:15;;;;;;;11.32;2.40;;;11.20;99.90;;;;;;4988660;28;20085;-38
2023/12/20 12:42:43;;;;;;;10.93;2.30;;;10.90;99.90;;;;;;4972627;28;20505;-38
2023/12/20 12:45:09;;;;;;;9.25;1.90;;;11.20;99.90;;;;;;4972929;28;20101;-33